Wetterdaten Leupoldsgruen
Wetterdaten: aktuell Dienstag, 09.04.2019 14:17
Datum Zeit Temp. 2m Temp. 5cm Temp. GH Feuchte 2m Feuchte 2 Luftdruck Regen Wind Richtung Richtung Sonnenschein ET Solar Taupunkt Windchill Windben
09.04.2019 14:17 7,7 C 9,4 C 26,7 C 82 % 82 % 1010,8 hPa 0,0 mm 17,1 km/h (3 Bft) N-NO 13 23 min 0,229 mm 336 W/m 4,8 C 4,8 C 24,1 km/h (4 Bft)
09.04.2019 13:17 7,2 C 10,0 C 28,3 C 80 % 77 % 1010,9 hPa 0,0 mm 21,7 km/h (4 Bft) N-NO 16 54 min 0,254 mm 569 W/m 4,0 C 3,7 C 32,2 km/h (5 Bft)
09.04.2019 12:18 7,2 C 10,0 C 27,8 C 82 % 82 % 1010,6 hPa 0,0 mm 15,0 km/h (3 Bft) NW 317 29 min 0,178 mm 487 W/m 4,3 C 4,5 C 19,3 km/h (3 Bft)
09.04.2019 11:17 6,1 C 7,8 C 22,8 C 86 % 83 % 1010,9 hPa 0,0 mm 17,3 km/h (3 Bft) N 3 12 min 0,127 mm 222 W/m 3,9 C 2,8 C 22,5 km/h (4 Bft)
09.04.2019 10:18 4,9 C 6,1 C 16,1 C 92 % 93 % 1010,6 hPa 0,0 mm 10,1 km/h (2 Bft) N-NW 331 0 min 0,076 mm 202 W/m 3,7 C 2,5 C 14,5 km/h (3 Bft)
09.04.2019 09:24 4,9 C 5,6 C 15,0 C 91 % 93 % 1010,6 hPa 0,0 mm 7,1 km/h (2 Bft) N-NO 18 0 min 0,076 mm 189 W/m 3,6 C 3,3 C 11,3 km/h (2 Bft)
09.04.2019 08:30 5,6 C 5,6 C 12,2 C 89 % 93 % 1010,3 hPa 0,0 mm 10,4 km/h (2 Bft) N-NO 20 0 min 0,051 mm 138 W/m 3,9 C 3,3 C 14,5 km/h (3 Bft)
09.04.2019 07:36 5,3 C 5,0 C 8,3 C 86 % 93 % 1010,1 hPa 0,0 mm 10,8 km/h (2 Bft) N-NW 346 0 min 0,025 mm 89 W/m 3,2 C 2,9 C 14,5 km/h (3 Bft)
09.04.2019 06:44 5,4 C 5,0 C 6,7 C 82 % 91 % 1009,8 hPa 0,0 mm 8,1 km/h (2 Bft) N-NO 20 0 min 0,026 mm 9 W/m 2,6 C 3,6 C 14,5 km/h (3 Bft)
09.04.2019 05:48 5,9 C 5,0 C 6,1 C 86 % 93 % 1009,3 hPa 0,0 mm 6,3 km/h (2 Bft) N-NW 330 0 min 0,025 mm 0 W/m 3,7 C 4,7 C 8,0 km/h (2 Bft)
09.04.2019 04:56 7,0 C 6,1 C 6,7 C 82 % 91 % 1008,8 hPa 0,0 mm 7,1 km/h (2 Bft) NW 309 0 min 0,000 mm 0 W/m 4,1 C 5,7 C 8,0 km/h (2 Bft)
09.04.2019 04:00 7,5 C 6,1 C 7,2 C 91 % 94 % 1008,6 hPa 0,0 mm 4,9 km/h (1 Bft) N-NW 329 0 min 0,000 mm 0 W/m 6,1 C 7,0 C 6,4 km/h (2 Bft)
09.04.2019 03:05 8,6 C 7,8 C 8,3 C 89 % 93 % 1008,7 hPa 0,0 mm 4,7 km/h (1 Bft) N-NW 327 0 min 0,000 mm 0 W/m 6,9 C 8,3 C 6,4 km/h (2 Bft)
09.04.2019 02:07 8,7 C 7,8 C 9,4 C 89 % 94 % 1008,7 hPa 0,2 mm 3,9 km/h (1 Bft) NW 324 0 min 0,000 mm 0 W/m 7,0 C 8,7 C 4,8 km/h (1 Bft)
09.04.2019 01:07 9,3 C 8,3 C 9,4 C 86 % 93 % 1008,6 hPa 0,0 mm 2,2 km/h (1 Bft) N-NW 327 0 min 0,000 mm 0 W/m 7,1 C 9,3 C 3,2 km/h (1 Bft)
09.04.2019 00:09 9,7 C 8,9 C 10,0 C 85 % 93 % 1008,5 hPa 0,0 mm 3,2 km/h (1 Bft) O-NO 74 0 min 0,000 mm 0 W/m 7,3 C 9,7 C 4,8 km/h (1 Bft)
08.04.2019 23:12 10,4 C 9,4 C 10,6 C 76 % 87 % 1008,8 hPa 0,0 mm 1,7 km/h (1 Bft) N-NW 336 0 min 0,025 mm 0 W/m 6,4 C 10,4 C 3,2 km/h (1 Bft)
08.04.2019 22:12 10,9 C 9,4 C 11,7 C 73 % 86 % 1008,8 hPa 0,0 mm 3,4 km/h (1 Bft) N-NW 335 0 min 0,026 mm 0 W/m 6,3 C 10,9 C 4,8 km/h (1 Bft)
08.04.2019 21:12 11,4 C 10,0 C 12,2 C 70 % 84 % 1008,9 hPa 0,0 mm 3,1 km/h (1 Bft) NW 309 0 min 0,025 mm 0 W/m 6,1 C 11,4 C 4,8 km/h (1 Bft)
08.04.2019 20:13 11,4 C 10,6 C 12,8 C 71 % 83 % 1009,1 hPa 0,0 mm 2,0 km/h (1 Bft) NW 305 0 min 0,000 mm 0 W/m 6,3 C 11,4 C 3,2 km/h (1 Bft)
08.04.2019 19:15 11,6 C 11,7 C 13,9 C 73 % 80 % 1008,5 hPa 0,0 mm 1,7 km/h (1 Bft) S-SW 212 0 min 0,025 mm 7 W/m 6,9 C 11,6 C 3,2 km/h (1 Bft)
08.04.2019 18:14 12,7 C 12,8 C 15,6 C 66 % 78 % 1008,4 hPa 0,0 mm 1,1 km/h (1 Bft) NW 314 0 min 0,077 mm 40 W/m 6,5 C 12,7 C 1,6 km/h (1 Bft)
08.04.2019 17:12 13,9 C 13,9 C 18,3 C 53 % 62 % 1008,2 hPa 0,0 mm 9,0 km/h (2 Bft) NO 53 0 min 0,127 mm 50 W/m 4,5 C 13,9 C 14,5 km/h (3 Bft)
08.04.2019 16:18 14,6 C 15,0 C 22,2 C 52 % 59 % 1007,8 hPa 0,0 mm 11,7 km/h (2 Bft) O-NO 75 0 min 0,177 mm 127 W/m 4,9 C 14,6 C 17,7 km/h (3 Bft)
08.04.2019 15:23 14,7 C 16,1 C 23,9 C 52 % 58 % 1007,8 hPa 0,0 mm 13,0 km/h (3 Bft) O-SO 115 0 min 0,280 mm 166 W/m 5,0 C 14,7 C 17,7 km/h (3 Bft)
08.04.2019 15:00 15,1 C 16,7 C 27,2 C 51 % 59 % 1007,8 hPa 0,0 mm 11,1 km/h (2 Bft) N 6 0 min 0,280 mm 321 W/m 5,0 C 15,1 C 17,7 km/h (3 Bft)
_ Min-Zeit 10:13 07:41 06:43 16:49 15:13 16:20 - 19:50 - - - - - 06:48 09:48 19:50
Minimum _ 4,8 C 5,0 C 6,1 C 51 % 56 % 1007,8 hPa - 0,0 km/h (0 Bft) - - - - - 2,6 C 1,1 C 0,0 km/h (0 Bft)
_ Max-Zeit 15:00 15:14 13:11 10:40 04:17 13:49 01:23 13:29 - - 12:07 15:00 14:12 00:06 15:00 13:29
Maximum _ 15,1 C 16,7 C 28,9 C 92 % 95 % 1011,0 hPa 0,2 mm 27,4 km/h
N-NO (5 Bft)
- - 3 min 0,280 mm 749 W/m 7,6 C 15,1 C 35,4 km/h
N-NO (5 Bft)
Durchschnitt _ 9,4 C 9,6 C 15,3 C 76 % 83 % 1009,2 hPa #0,2 mm 8,0 km/h (2 Bft) N - #1:57 h #1,067 mm 281 W/m 5,2 C 8,5 C 11,6 km/h (2 Bft)